sensor_id;sensor_type;location;lat;lon;timestamp;P1;durP1;ratioP1;P2;durP2;ratioP2
21806;SDS011;11065;50.786;7.840;2024-02-26T00:01:53;1.27;;;0.60;;
21806;SDS011;11065;50.786;7.840;2024-02-26T00:04:21;0.97;;;0.60;;
21806;SDS011;11065;50.786;7.840;2024-02-26T00:06:49;1.30;;;0.70;;
21806;SDS011;11065;50.786;7.840;2024-02-26T00:09:20;0.90;;;0.60;;
21806;SDS011;11065;50.786;7.840;2024-02-26T00:11:48;1.17;;;0.80;;
21806;SDS011;11065;50.786;7.840;2024-02-26T00:14:16;1.73;;;0.90;;
21806;SDS011;11065;50.786;7.840;2024-02-26T00:16:44;1.40;;;0.60;;
21806;SDS011;11065;50.786;7.840;2024-02-26T00:19:13;1.00;;;0.70;;
21806;SDS011;11065;50.786;7.840;2024-02-26T00:21:42;6.97;;;0.80;;
21806;SDS011;11065;50.786;7.840;2024-02-26T00:24:10;1.07;;;0.63;;
21806;SDS011;11065;50.786;7.840;2024-02-26T00:26:38;0.90;;;0.70;;
21806;SDS011;11065;50.786;7.840;2024-02-26T00:29:06;1.37;;;0.70;;
21806;SDS011;11065;50.786;7.840;2024-02-26T00:31:34;2.63;;;0.67;;
21806;SDS011;11065;50.786;7.840;2024-02-26T00:34:03;1.63;;;0.77;;
21806;SDS011;11065;50.786;7.840;2024-02-26T00:36:33;1.00;;;0.60;;
21806;SDS011;11065;50.786;7.840;2024-02-26T00:39:01;1.17;;;0.70;;
21806;SDS011;11065;50.786;7.840;2024-02-26T00:41:30;0.90;;;0.50;;
21806;SDS011;11065;50.786;7.840;2024-02-26T00:43:58;1.20;;;0.70;;
21806;SDS011;11065;50.786;7.840;2024-02-26T00:46:26;1.63;;;0.80;;
21806;SDS011;11065;50.786;7.840;2024-02-26T00:48:54;1.30;;;0.70;;
21806;SDS011;11065;50.786;7.840;2024-02-26T00:51:22;1.20;;;0.70;;
21806;SDS011;11065;50.786;7.840;2024-02-26T00:53:53;1.50;;;0.80;;
21806;SDS011;11065;50.786;7.840;2024-02-26T00:56:21;1.10;;;0.70;;
21806;SDS011;11065;50.786;7.840;2024-02-26T00:58:49;1.63;;;0.80;;
21806;SDS011;11065;50.786;7.840;2024-02-26T01:01:17;1.00;;;0.70;;
21806;SDS011;11065;50.786;7.840;2024-02-26T01:03:46;1.20;;;0.70;;
21806;SDS011;11065;50.786;7.840;2024-02-26T01:06:14;2.50;;;0.80;;
21806;SDS011;11065;50.786;7.840;2024-02-26T01:08:42;1.63;;;0.80;;
21806;SDS011;11065;50.786;7.840;2024-02-26T01:11:11;2.17;;;1.00;;
21806;SDS011;11065;50.786;7.840;2024-02-26T01:13:39;1.33;;;0.80;;
21806;SDS011;11065;50.786;7.840;2024-02-26T01:16:07;1.43;;;0.70;;
21806;SDS011;11065;50.786;7.840;2024-02-26T01:18:37;1.70;;;0.70;;
21806;SDS011;11065;50.786;7.840;2024-02-26T01:21:05;1.50;;;0.90;;
21806;SDS011;11065;50.786;7.840;2024-02-26T01:23:35;2.07;;;0.90;;
21806;SDS011;11065;50.786;7.840;2024-02-26T01:26:03;1.87;;;0.80;;
21806;SDS011;11065;50.786;7.840;2024-02-26T01:28:33;1.20;;;0.80;;
21806;SDS011;11065;50.786;7.840;2024-02-26T01:31:00;1.20;;;0.70;;
21806;SDS011;11065;50.786;7.840;2024-02-26T01:33:31;1.20;;;0.80;;
21806;SDS011;11065;50.786;7.840;2024-02-26T01:35:59;2.00;;;0.80;;
21806;SDS011;11065;50.786;7.840;2024-02-26T01:38:27;1.00;;;0.63;;
21806;SDS011;11065;50.786;7.840;2024-02-26T01:40:55;1.33;;;0.70;;
21806;SDS011;11065;50.786;7.840;2024-02-26T01:43:23;1.47;;;0.73;;
21806;SDS011;11065;50.786;7.840;2024-02-26T01:45:52;1.40;;;0.80;;
21806;SDS011;11065;50.786;7.840;2024-02-26T01:48:21;1.70;;;0.80;;
21806;SDS011;11065;50.786;7.840;2024-02-26T01:50:49;1.70;;;0.80;;
21806;SDS011;11065;50.786;7.840;2024-02-26T01:53:17;1.87;;;0.90;;
21806;SDS011;11065;50.786;7.840;2024-02-26T01:55:46;1.70;;;0.80;;
21806;SDS011;11065;50.786;7.840;2024-02-26T01:58:15;1.77;;;0.70;;
21806;SDS011;11065;50.786;7.840;2024-02-26T02:00:43;2.10;;;0.90;;
21806;SDS011;11065;50.786;7.840;2024-02-26T02:03:13;1.23;;;0.70;;
21806;SDS011;11065;50.786;7.840;2024-02-26T02:05:41;1.47;;;0.80;;
21806;SDS011;11065;50.786;7.840;2024-02-26T02:08:10;1.57;;;0.70;;
21806;SDS011;11065;50.786;7.840;2024-02-26T02:10:38;1.90;;;0.73;;
21806;SDS011;11065;50.786;7.840;2024-02-26T02:13:06;1.17;;;0.70;;
21806;SDS011;11065;50.786;7.840;2024-02-26T02:15:34;1.20;;;0.70;;
21806;SDS011;11065;50.786;7.840;2024-02-26T02:18:02;1.20;;;0.70;;
21806;SDS011;11065;50.786;7.840;2024-02-26T02:20:32;1.33;;;0.70;;
21806;SDS011;11065;50.786;7.840;2024-02-26T02:23:01;1.50;;;0.73;;
21806;SDS011;11065;50.786;7.840;2024-02-26T02:25:30;1.20;;;0.73;;
21806;SDS011;11065;50.786;7.840;2024-02-26T02:27:57;1.97;;;0.70;;
21806;SDS011;11065;50.786;7.840;2024-02-26T02:30:27;1.20;;;0.63;;
21806;SDS011;11065;50.786;7.840;2024-02-26T02:32:56;1.07;;;0.70;;
21806;SDS011;11065;50.786;7.840;2024-02-26T02:35:26;0.97;;;0.57;;
21806;SDS011;11065;50.786;7.840;2024-02-26T02:37:55;1.20;;;0.80;;
21806;SDS011;11065;50.786;7.840;2024-02-26T02:40:24;1.27;;;0.70;;
21806;SDS011;11065;50.786;7.840;2024-02-26T02:42:52;1.20;;;0.80;;
21806;SDS011;11065;50.786;7.840;2024-02-26T02:45:20;1.90;;;0.87;;
21806;SDS011;11065;50.786;7.840;2024-02-26T02:47:48;1.53;;;0.70;;
21806;SDS011;11065;50.786;7.840;2024-02-26T02:50:16;1.17;;;0.63;;
21806;SDS011;11065;50.786;7.840;2024-02-26T02:52:44;1.10;;;0.70;;
21806;SDS011;11065;50.786;7.840;2024-02-26T02:55:16;1.13;;;0.70;;
21806;SDS011;11065;50.786;7.840;2024-02-26T02:57:44;1.13;;;0.80;;
21806;SDS011;11065;50.786;7.840;2024-02-26T03:00:12;1.30;;;0.70;;
21806;SDS011;11065;50.786;7.840;2024-02-26T03:02:40;1.23;;;0.70;;
21806;SDS011;11065;50.786;7.840;2024-02-26T03:05:09;1.00;;;0.60;;
21806;SDS011;11065;50.786;7.840;2024-02-26T03:07:37;1.77;;;0.80;;
21806;SDS011;11065;50.786;7.840;2024-02-26T03:10:05;1.60;;;0.70;;
21806;SDS011;11065;50.786;7.840;2024-02-26T03:12:35;1.30;;;0.80;;
21806;SDS011;11065;50.786;7.840;2024-02-26T03:15:04;1.67;;;0.70;;
21806;SDS011;11065;50.786;7.840;2024-02-26T03:17:32;1.70;;;0.80;;
21806;SDS011;11065;50.786;7.840;2024-02-26T03:20:00;1.50;;;0.87;;
21806;SDS011;11065;50.786;7.840;2024-02-26T03:22:30;1.00;;;0.60;;
21806;SDS011;11065;50.786;7.840;2024-02-26T03:24:57;1.33;;;0.73;;
21806;SDS011;11065;50.786;7.840;2024-02-26T03:27:25;1.43;;;0.83;;
21806;SDS011;11065;50.786;7.840;2024-02-26T03:29:55;2.07;;;0.63;;
21806;SDS011;11065;50.786;7.840;2024-02-26T03:32:23;0.97;;;0.70;;
21806;SDS011;11065;50.786;7.840;2024-02-26T03:34:51;1.70;;;1.07;;
21806;SDS011;11065;50.786;7.840;2024-02-26T03:37:20;2.30;;;1.20;;
21806;SDS011;11065;50.786;7.840;2024-02-26T03:39:48;3.10;;;1.73;;
21806;SDS011;11065;50.786;7.840;2024-02-26T03:42:16;3.57;;;1.90;;
21806;SDS011;11065;50.786;7.840;2024-02-26T03:44:44;2.73;;;1.40;;
21806;SDS011;11065;50.786;7.840;2024-02-26T03:47:14;2.07;;;1.00;;
21806;SDS011;11065;50.786;7.840;2024-02-26T03:49:43;1.43;;;0.80;;
21806;SDS011;11065;50.786;7.840;2024-02-26T03:52:11;1.10;;;0.80;;
21806;SDS011;11065;50.786;7.840;2024-02-26T03:54:39;1.47;;;0.80;;
21806;SDS011;11065;50.786;7.840;2024-02-26T03:57:07;4.30;;;0.80;;
21806;SDS011;11065;50.786;7.840;2024-02-26T03:59:35;1.90;;;0.80;;
21806;SDS011;11065;50.786;7.840;2024-02-26T04:02:03;1.30;;;0.70;;
21806;SDS011;11065;50.786;7.840;2024-02-26T04:04:34;1.67;;;0.70;;
21806;SDS011;11065;50.786;7.840;2024-02-26T04:07:02;1.03;;;0.70;;
21806;SDS011;11065;50.786;7.840;2024-02-26T04:09:31;1.93;;;0.80;;
21806;SDS011;11065;50.786;7.840;2024-02-26T04:11:59;1.63;;;0.80;;
21806;SDS011;11065;50.786;7.840;2024-02-26T04:14:27;1.53;;;0.87;;
21806;SDS011;11065;50.786;7.840;2024-02-26T04:16:55;1.50;;;0.80;;
21806;SDS011;11065;50.786;7.840;2024-02-26T04:19:23;1.33;;;0.80;;
21806;SDS011;11065;50.786;7.840;2024-02-26T04:21:52;0.87;;;0.67;;
21806;SDS011;11065;50.786;7.840;2024-02-26T04:24:21;1.40;;;0.77;;
21806;SDS011;11065;50.786;7.840;2024-02-26T04:26:49;1.00;;;0.70;;
21806;SDS011;11065;50.786;7.840;2024-02-26T04:29:17;1.80;;;0.90;;
21806;SDS011;11065;50.786;7.840;2024-02-26T04:31:45;1.63;;;0.80;;
21806;SDS011;11065;50.786;7.840;2024-02-26T04:34:14;2.33;;;1.00;;
21806;SDS011;11065;50.786;7.840;2024-02-26T04:36:42;1.67;;;0.90;;
21806;SDS011;11065;50.786;7.840;2024-02-26T04:39:11;1.60;;;0.80;;
21806;SDS011;11065;50.786;7.840;2024-02-26T04:41:39;1.70;;;1.10;;
21806;SDS011;11065;50.786;7.840;2024-02-26T04:44:07;2.27;;;1.27;;
21806;SDS011;11065;50.786;7.840;2024-02-26T04:46:35;2.87;;;1.60;;
21806;SDS011;11065;50.786;7.840;2024-02-26T04:49:03;1.70;;;1.27;;
21806;SDS011;11065;50.786;7.840;2024-02-26T04:51:31;1.70;;;1.00;;
21806;SDS011;11065;50.786;7.840;2024-02-26T04:53:59;1.50;;;1.10;;
21806;SDS011;11065;50.786;7.840;2024-02-26T04:56:28;5.40;;;2.13;;
21806;SDS011;11065;50.786;7.840;2024-02-26T04:58:56;2.53;;;1.20;;
21806;SDS011;11065;50.786;7.840;2024-02-26T05:01:24;2.70;;;1.10;;
21806;SDS011;11065;50.786;7.840;2024-02-26T05:03:52;2.03;;;1.10;;
21806;SDS011;11065;50.786;7.840;2024-02-26T05:06:20;3.17;;;1.50;;
21806;SDS011;11065;50.786;7.840;2024-02-26T05:08:49;2.40;;;1.50;;
21806;SDS011;11065;50.786;7.840;2024-02-26T05:11:16;2.20;;;1.20;;
21806;SDS011;11065;50.786;7.840;2024-02-26T05:13:47;1.57;;;0.93;;
21806;SDS011;11065;50.786;7.840;2024-02-26T05:16:15;1.40;;;0.97;;
21806;SDS011;11065;50.786;7.840;2024-02-26T05:18:43;1.57;;;0.87;;
21806;SDS011;11065;50.786;7.840;2024-02-26T05:21:11;1.30;;;0.80;;
21806;SDS011;11065;50.786;7.840;2024-02-26T05:23:39;1.87;;;0.87;;
21806;SDS011;11065;50.786;7.840;2024-02-26T05:26:09;1.37;;;0.80;;
21806;SDS011;11065;50.786;7.840;2024-02-26T05:28:37;1.90;;;0.90;;
21806;SDS011;11065;50.786;7.840;2024-02-26T05:31:07;1.77;;;1.00;;
21806;SDS011;11065;50.786;7.840;2024-02-26T05:33:35;2.20;;;1.20;;
21806;SDS011;11065;50.786;7.840;2024-02-26T05:36:03;1.83;;;1.20;;
21806;SDS011;11065;50.786;7.840;2024-02-26T05:38:31;2.27;;;1.20;;
21806;SDS011;11065;50.786;7.840;2024-02-26T05:40:59;3.70;;;1.60;;
21806;SDS011;11065;50.786;7.840;2024-02-26T05:43:27;2.13;;;1.13;;
21806;SDS011;11065;50.786;7.840;2024-02-26T05:45:56;2.40;;;1.37;;
21806;SDS011;11065;50.786;7.840;2024-02-26T05:48:25;1.40;;;1.10;;
21806;SDS011;11065;50.786;7.840;2024-02-26T05:50:53;2.10;;;1.00;;
21806;SDS011;11065;50.786;7.840;2024-02-26T05:53:21;1.60;;;0.90;;
21806;SDS011;11065;50.786;7.840;2024-02-26T05:55:49;1.60;;;0.97;;
21806;SDS011;11065;50.786;7.840;2024-02-26T05:58:17;1.23;;;0.90;;
21806;SDS011;11065;50.786;7.840;2024-02-26T06:00:45;1.90;;;1.00;;
21806;SDS011;11065;50.786;7.840;2024-02-26T06:03:14;1.40;;;0.80;;
21806;SDS011;11065;50.786;7.840;2024-02-26T06:05:43;2.00;;;1.10;;
21806;SDS011;11065;50.786;7.840;2024-02-26T06:08:11;2.00;;;1.10;;
21806;SDS011;11065;50.786;7.840;2024-02-26T06:10:39;1.43;;;1.00;;
21806;SDS011;11065;50.786;7.840;2024-02-26T06:13:08;1.77;;;0.90;;
21806;SDS011;11065;50.786;7.840;2024-02-26T06:15:36;1.47;;;1.00;;
21806;SDS011;11065;50.786;7.840;2024-02-26T06:18:04;2.30;;;1.00;;
21806;SDS011;11065;50.786;7.840;2024-02-26T06:20:32;1.23;;;0.93;;
21806;SDS011;11065;50.786;7.840;2024-02-26T06:23:01;2.10;;;1.23;;
21806;SDS011;11065;50.786;7.840;2024-02-26T06:25:29;1.97;;;1.10;;
21806;SDS011;11065;50.786;7.840;2024-02-26T06:27:57;1.63;;;1.20;;
21806;SDS011;11065;50.786;7.840;2024-02-26T06:30:25;1.63;;;1.00;;
21806;SDS011;11065;50.786;7.840;2024-02-26T06:32:53;2.03;;;1.10;;
21806;SDS011;11065;50.786;7.840;2024-02-26T06:35:21;2.20;;;1.13;;
21806;SDS011;11065;50.786;7.840;2024-02-26T06:37:49;2.13;;;1.20;;
21806;SDS011;11065;50.786;7.840;2024-02-26T06:40:20;1.50;;;0.93;;
21806;SDS011;11065;50.786;7.840;2024-02-26T06:42:48;1.40;;;0.90;;
21806;SDS011;11065;50.786;7.840;2024-02-26T06:45:16;2.43;;;1.10;;
21806;SDS011;11065;50.786;7.840;2024-02-26T06:47:44;2.20;;;1.17;;
21806;SDS011;11065;50.786;7.840;2024-02-26T06:50:12;2.17;;;1.10;;
21806;SDS011;11065;50.786;7.840;2024-02-26T06:52:41;2.10;;;1.40;;
21806;SDS011;11065;50.786;7.840;2024-02-26T06:55:10;2.07;;;1.30;;
21806;SDS011;11065;50.786;7.840;2024-02-26T06:57:39;2.37;;;1.40;;
21806;SDS011;11065;50.786;7.840;2024-02-26T07:00:08;3.30;;;1.10;;
21806;SDS011;11065;50.786;7.840;2024-02-26T07:02:41;1.70;;;1.00;;
21806;SDS011;11065;50.786;7.840;2024-02-26T07:05:09;2.07;;;1.00;;
21806;SDS011;11065;50.786;7.840;2024-02-26T07:07:37;1.93;;;1.10;;
21806;SDS011;11065;50.786;7.840;2024-02-26T07:10:05;3.00;;;1.10;;
21806;SDS011;11065;50.786;7.840;2024-02-26T07:12:33;2.47;;;1.20;;
21806;SDS011;11065;50.786;7.840;2024-02-26T07:15:03;2.70;;;1.37;;
21806;SDS011;11065;50.786;7.840;2024-02-26T07:17:34;2.33;;;1.27;;
21806;SDS011;11065;50.786;7.840;2024-02-26T07:20:02;2.07;;;1.30;;
21806;SDS011;11065;50.786;7.840;2024-02-26T07:22:35;2.10;;;1.17;;
21806;SDS011;11065;50.786;7.840;2024-02-26T07:25:04;2.10;;;1.20;;
21806;SDS011;11065;50.786;7.840;2024-02-26T07:27:34;1.90;;;1.13;;
21806;SDS011;11065;50.786;7.840;2024-02-26T07:30:04;1.73;;;0.90;;
21806;SDS011;11065;50.786;7.840;2024-02-26T07:32:32;1.90;;;1.30;;
21806;SDS011;11065;50.786;7.840;2024-02-26T07:35:01;3.97;;;1.43;;
21806;SDS011;11065;50.786;7.840;2024-02-26T07:37:29;2.47;;;1.33;;
21806;SDS011;11065;50.786;7.840;2024-02-26T07:39:57;2.60;;;1.00;;
21806;SDS011;11065;50.786;7.840;2024-02-26T07:42:25;2.17;;;1.10;;
21806;SDS011;11065;50.786;7.840;2024-02-26T07:44:53;2.40;;;1.17;;
21806;SDS011;11065;50.786;7.840;2024-02-26T07:47:22;2.43;;;1.23;;
21806;SDS011;11065;50.786;7.840;2024-02-26T07:49:50;3.27;;;1.30;;
21806;SDS011;11065;50.786;7.840;2024-02-26T07:52:18;2.77;;;1.10;;
21806;SDS011;11065;50.786;7.840;2024-02-26T07:54:47;2.03;;;1.37;;
21806;SDS011;11065;50.786;7.840;2024-02-26T07:57:15;2.60;;;1.23;;
21806;SDS011;11065;50.786;7.840;2024-02-26T07:59:43;2.43;;;1.30;;
21806;SDS011;11065;50.786;7.840;2024-02-26T08:02:16;2.53;;;1.30;;
21806;SDS011;11065;50.786;7.840;2024-02-26T08:04:45;2.33;;;1.60;;
21806;SDS011;11065;50.786;7.840;2024-02-26T08:07:13;1.93;;;1.20;;
21806;SDS011;11065;50.786;7.840;2024-02-26T08:09:43;2.20;;;1.30;;
21806;SDS011;11065;50.786;7.840;2024-02-26T08:12:12;1.57;;;1.07;;
21806;SDS011;11065;50.786;7.840;2024-02-26T08:14:40;2.47;;;1.37;;
21806;SDS011;11065;50.786;7.840;2024-02-26T08:17:09;2.33;;;1.30;;
21806;SDS011;11065;50.786;7.840;2024-02-26T08:19:37;2.60;;;1.40;;
21806;SDS011;11065;50.786;7.840;2024-02-26T08:22:06;2.20;;;1.27;;
21806;SDS011;11065;50.786;7.840;2024-02-26T08:24:34;2.07;;;1.10;;
21806;SDS011;11065;50.786;7.840;2024-02-26T08:27:02;2.13;;;1.50;;
21806;SDS011;11065;50.786;7.840;2024-02-26T08:29:30;1.87;;;1.27;;
21806;SDS011;11065;50.786;7.840;2024-02-26T08:31:58;3.70;;;1.33;;
21806;SDS011;11065;50.786;7.840;2024-02-26T08:34:26;2.67;;;1.37;;
21806;SDS011;11065;50.786;7.840;2024-02-26T08:36:54;2.23;;;1.37;;
21806;SDS011;11065;50.786;7.840;2024-02-26T08:39:24;2.80;;;1.43;;
21806;SDS011;11065;50.786;7.840;2024-02-26T08:41:52;2.30;;;1.40;;
21806;SDS011;11065;50.786;7.840;2024-02-26T08:44:20;2.63;;;1.30;;
21806;SDS011;11065;50.786;7.840;2024-02-26T08:46:48;2.90;;;1.20;;
21806;SDS011;11065;50.786;7.840;2024-02-26T08:49:17;3.37;;;1.30;;
21806;SDS011;11065;50.786;7.840;2024-02-26T08:51:45;2.60;;;1.10;;
21806;SDS011;11065;50.786;7.840;2024-02-26T08:54:13;3.30;;;1.30;;
21806;SDS011;11065;50.786;7.840;2024-02-26T08:56:42;2.27;;;1.20;;
21806;SDS011;11065;50.786;7.840;2024-02-26T08:59:10;2.17;;;1.10;;
21806;SDS011;11065;50.786;7.840;2024-02-26T09:01:38;2.20;;;1.33;;
21806;SDS011;11065;50.786;7.840;2024-02-26T09:04:06;1.63;;;1.10;;
21806;SDS011;11065;50.786;7.840;2024-02-26T09:06:34;2.03;;;1.13;;
21806;SDS011;11065;50.786;7.840;2024-02-26T09:09:02;2.53;;;1.20;;
21806;SDS011;11065;50.786;7.840;2024-02-26T09:11:30;2.27;;;1.40;;
21806;SDS011;11065;50.786;7.840;2024-02-26T09:14:00;2.83;;;1.60;;
21806;SDS011;11065;50.786;7.840;2024-02-26T09:16:27;1.70;;;1.10;;
21806;SDS011;11065;50.786;7.840;2024-02-26T09:18:55;1.70;;;1.00;;
21806;SDS011;11065;50.786;7.840;2024-02-26T09:21:23;1.67;;;1.13;;
21806;SDS011;11065;50.786;7.840;2024-02-26T09:23:52;3.53;;;1.50;;
21806;SDS011;11065;50.786;7.840;2024-02-26T09:26:21;2.60;;;1.30;;
21806;SDS011;11065;50.786;7.840;2024-02-26T09:28:49;2.40;;;1.33;;
21806;SDS011;11065;50.786;7.840;2024-02-26T09:31:18;3.97;;;1.23;;
21806;SDS011;11065;50.786;7.840;2024-02-26T09:33:46;2.30;;;1.40;;
21806;SDS011;11065;50.786;7.840;2024-02-26T09:36:14;2.80;;;1.33;;
21806;SDS011;11065;50.786;7.840;2024-02-26T09:38:42;2.27;;;1.20;;
21806;SDS011;11065;50.786;7.840;2024-02-26T09:41:25;2.03;;;1.10;;
21806;SDS011;11065;50.786;7.840;2024-02-26T09:43:56;1.90;;;1.10;;
21806;SDS011;11065;50.786;7.840;2024-02-26T09:46:27;2.33;;;1.37;;
21806;SDS011;11065;50.786;7.840;2024-02-26T09:48:55;1.40;;;1.10;;
21806;SDS011;11065;50.786;7.840;2024-02-26T09:51:24;2.23;;;1.40;;
21806;SDS011;11065;50.786;7.840;2024-02-26T09:53:53;2.27;;;1.10;;
21806;SDS011;11065;50.786;7.840;2024-02-26T09:56:22;2.27;;;1.40;;
21806;SDS011;11065;50.786;7.840;2024-02-26T09:58:50;1.87;;;1.30;;
21806;SDS011;11065;50.786;7.840;2024-02-26T10:01:21;2.80;;;1.50;;
21806;SDS011;11065;50.786;7.840;2024-02-26T10:03:55;2.50;;;1.47;;
21806;SDS011;11065;50.786;7.840;2024-02-26T10:06:24;1.97;;;1.13;;
21806;SDS011;11065;50.786;7.840;2024-02-26T10:08:54;1.60;;;1.10;;
21806;SDS011;11065;50.786;7.840;2024-02-26T10:11:25;2.53;;;1.43;;
21806;SDS011;11065;50.786;7.840;2024-02-26T10:13:54;1.70;;;1.20;;
21806;SDS011;11065;50.786;7.840;2024-02-26T10:16:22;2.77;;;1.50;;
21806;SDS011;11065;50.786;7.840;2024-02-26T10:18:53;2.13;;;1.43;;
21806;SDS011;11065;50.786;7.840;2024-02-26T10:21:25;2.43;;;1.53;;
21806;SDS011;11065;50.786;7.840;2024-02-26T10:23:53;2.90;;;1.30;;
21806;SDS011;11065;50.786;7.840;2024-02-26T10:26:21;2.37;;;1.43;;
21806;SDS011;11065;50.786;7.840;2024-02-26T10:28:49;2.30;;;1.40;;
21806;SDS011;11065;50.786;7.840;2024-02-26T10:31:21;2.77;;;1.50;;
21806;SDS011;11065;50.786;7.840;2024-02-26T10:33:49;3.77;;;1.87;;
21806;SDS011;11065;50.786;7.840;2024-02-26T10:36:19;3.57;;;1.47;;
21806;SDS011;11065;50.786;7.840;2024-02-26T10:38:48;2.03;;;1.37;;
21806;SDS011;11065;50.786;7.840;2024-02-26T10:41:18;3.10;;;1.77;;
21806;SDS011;11065;50.786;7.840;2024-02-26T10:43:46;2.93;;;1.53;;
21806;SDS011;11065;50.786;7.840;2024-02-26T10:46:14;2.10;;;1.50;;
21806;SDS011;11065;50.786;7.840;2024-02-26T10:48:48;4.20;;;2.17;;
21806;SDS011;11065;50.786;7.840;2024-02-26T10:51:17;2.37;;;1.70;;
21806;SDS011;11065;50.786;7.840;2024-02-26T10:53:49;3.07;;;1.83;;
21806;SDS011;11065;50.786;7.840;2024-02-26T10:56:28;3.57;;;2.00;;
21806;SDS011;11065;50.786;7.840;2024-02-26T10:58:57;2.80;;;1.70;;
21806;SDS011;11065;50.786;7.840;2024-02-26T11:01:26;3.23;;;1.83;;
21806;SDS011;11065;50.786;7.840;2024-02-26T11:03:55;3.80;;;2.10;;
21806;SDS011;11065;50.786;7.840;2024-02-26T11:06:26;3.90;;;2.10;;
21806;SDS011;11065;50.786;7.840;2024-02-26T11:08:56;2.43;;;1.60;;
21806;SDS011;11065;50.786;7.840;2024-02-26T11:11:25;3.43;;;1.90;;
21806;SDS011;11065;50.786;7.840;2024-02-26T11:13:54;4.00;;;2.20;;
21806;SDS011;11065;50.786;7.840;2024-02-26T11:16:23;4.03;;;2.30;;
21806;SDS011;11065;50.786;7.840;2024-02-26T11:18:53;4.97;;;2.40;;
21806;SDS011;11065;50.786;7.840;2024-02-26T11:21:22;3.90;;;2.30;;
21806;SDS011;11065;50.786;7.840;2024-02-26T11:23:57;3.30;;;2.10;;
21806;SDS011;11065;50.786;7.840;2024-02-26T11:26:25;3.40;;;1.80;;
21806;SDS011;11065;50.786;7.840;2024-02-26T11:28:54;3.97;;;2.20;;
21806;SDS011;11065;50.786;7.840;2024-02-26T11:31:24;4.03;;;2.40;;
21806;SDS011;11065;50.786;7.840;2024-02-26T11:33:53;3.40;;;2.00;;
21806;SDS011;11065;50.786;7.840;2024-02-26T11:36:23;3.87;;;2.10;;
21806;SDS011;11065;50.786;7.840;2024-02-26T11:38:52;3.60;;;2.07;;
21806;SDS011;11065;50.786;7.840;2024-02-26T11:41:22;4.60;;;1.97;;
21806;SDS011;11065;50.786;7.840;2024-02-26T11:43:50;3.67;;;1.93;;
21806;SDS011;11065;50.786;7.840;2024-02-26T11:46:25;3.10;;;1.97;;
21806;SDS011;11065;50.786;7.840;2024-02-26T11:48:59;3.00;;;1.93;;
21806;SDS011;11065;50.786;7.840;2024-02-26T11:51:32;3.70;;;1.90;;
21806;SDS011;11065;50.786;7.840;2024-02-26T11:54:01;4.23;;;2.10;;
21806;SDS011;11065;50.786;7.840;2024-02-26T11:56:30;2.97;;;1.90;;
21806;SDS011;11065;50.786;7.840;2024-02-26T11:59:03;3.57;;;2.07;;
21806;SDS011;11065;50.786;7.840;2024-02-26T12:01:43;3.00;;;1.90;;
21806;SDS011;11065;50.786;7.840;2024-02-26T12:04:18;4.47;;;1.83;;
21806;SDS011;11065;50.786;7.840;2024-02-26T12:06:50;3.17;;;1.90;;
21806;SDS011;11065;50.786;7.840;2024-02-26T12:09:33;3.70;;;1.90;;
21806;SDS011;11065;50.786;7.840;2024-02-26T12:12:04;3.87;;;1.93;;
21806;SDS011;11065;50.786;7.840;2024-02-26T12:14:34;2.73;;;2.00;;
21806;SDS011;11065;50.786;7.840;2024-02-26T12:17:04;2.23;;;1.70;;
21806;SDS011;11065;50.786;7.840;2024-02-26T12:19:35;3.33;;;2.07;;
21806;SDS011;11065;50.786;7.840;2024-02-26T12:22:08;3.50;;;2.17;;
21806;SDS011;11065;50.786;7.840;2024-02-26T12:24:37;2.47;;;1.70;;
21806;SDS011;11065;50.786;7.840;2024-02-26T12:27:07;2.43;;;1.67;;
21806;SDS011;11065;50.786;7.840;2024-02-26T12:29:35;2.90;;;1.90;;
21806;SDS011;11065;50.786;7.840;2024-02-26T12:32:03;3.23;;;1.73;;
21806;SDS011;11065;50.786;7.840;2024-02-26T12:34:34;2.80;;;1.83;;
21806;SDS011;11065;50.786;7.840;2024-02-26T12:37:02;2.47;;;1.50;;
21806;SDS011;11065;50.786;7.840;2024-02-26T12:39:30;3.00;;;1.70;;
21806;SDS011;11065;50.786;7.840;2024-02-26T12:41:59;2.67;;;1.40;;
21806;SDS011;11065;50.786;7.840;2024-02-26T12:44:30;3.57;;;1.83;;
21806;SDS011;11065;50.786;7.840;2024-02-26T12:47:02;2.37;;;1.40;;
21806;SDS011;11065;50.786;7.840;2024-02-26T12:49:31;2.27;;;1.30;;
21806;SDS011;11065;50.786;7.840;2024-02-26T12:51:59;3.00;;;1.50;;
21806;SDS011;11065;50.786;7.840;2024-02-26T12:54:28;3.03;;;1.40;;
21806;SDS011;11065;50.786;7.840;2024-02-26T12:56:58;3.60;;;1.60;;
21806;SDS011;11065;50.786;7.840;2024-02-26T12:59:30;2.33;;;1.30;;
21806;SDS011;11065;50.786;7.840;2024-02-26T13:01:59;3.10;;;1.87;;
21806;SDS011;11065;50.786;7.840;2024-02-26T13:04:29;5.30;;;2.77;;
21806;SDS011;11065;50.786;7.840;2024-02-26T13:06:58;3.23;;;2.20;;
21806;SDS011;11065;50.786;7.840;2024-02-26T13:09:31;3.17;;;1.73;;
21806;SDS011;11065;50.786;7.840;2024-02-26T13:12:03;3.27;;;1.90;;
21806;SDS011;11065;50.786;7.840;2024-02-26T13:14:33;3.27;;;2.30;;
21806;SDS011;11065;50.786;7.840;2024-02-26T13:17:02;2.77;;;1.83;;
21806;SDS011;11065;50.786;7.840;2024-02-26T13:19:31;3.10;;;1.90;;
21806;SDS011;11065;50.786;7.840;2024-02-26T13:22:03;3.93;;;2.30;;
21806;SDS011;11065;50.786;7.840;2024-02-26T13:24:32;4.13;;;2.10;;
21806;SDS011;11065;50.786;7.840;2024-02-26T13:27:01;3.10;;;1.80;;
21806;SDS011;11065;50.786;7.840;2024-02-26T13:29:29;3.63;;;1.80;;
21806;SDS011;11065;50.786;7.840;2024-02-26T13:31:59;2.67;;;1.80;;
21806;SDS011;11065;50.786;7.840;2024-02-26T13:34:28;2.60;;;1.70;;
21806;SDS011;11065;50.786;7.840;2024-02-26T13:36:57;4.90;;;2.07;;
21806;SDS011;11065;50.786;7.840;2024-02-26T13:39:25;4.20;;;2.27;;
21806;SDS011;11065;50.786;7.840;2024-02-26T13:41:54;2.90;;;1.87;;
21806;SDS011;11065;50.786;7.840;2024-02-26T13:44:23;3.70;;;1.80;;
21806;SDS011;11065;50.786;7.840;2024-02-26T13:46:52;2.80;;;1.90;;
21806;SDS011;11065;50.786;7.840;2024-02-26T13:49:21;3.43;;;1.97;;
21806;SDS011;11065;50.786;7.840;2024-02-26T13:51:49;5.13;;;2.03;;
21806;SDS011;11065;50.786;7.840;2024-02-26T13:54:18;4.33;;;2.50;;
21806;SDS011;11065;50.786;7.840;2024-02-26T13:56:46;5.10;;;2.20;;
21806;SDS011;11065;50.786;7.840;2024-02-26T13:59:14;3.00;;;1.97;;
21806;SDS011;11065;50.786;7.840;2024-02-26T14:01:42;3.67;;;2.13;;
21806;SDS011;11065;50.786;7.840;2024-02-26T14:04:11;2.67;;;2.00;;
21806;SDS011;11065;50.786;7.840;2024-02-26T14:06:40;4.20;;;2.00;;
21806;SDS011;11065;50.786;7.840;2024-02-26T14:09:08;3.47;;;2.10;;
21806;SDS011;11065;50.786;7.840;2024-02-26T14:11:37;3.23;;;1.90;;
21806;SDS011;11065;50.786;7.840;2024-02-26T14:14:08;3.07;;;2.10;;
21806;SDS011;11065;50.786;7.840;2024-02-26T14:16:36;4.43;;;2.23;;
21806;SDS011;11065;50.786;7.840;2024-02-26T14:19:04;3.23;;;2.07;;
21806;SDS011;11065;50.786;7.840;2024-02-26T14:21:33;3.27;;;2.37;;
21806;SDS011;11065;50.786;7.840;2024-02-26T14:24:02;4.00;;;2.40;;
21806;SDS011;11065;50.786;7.840;2024-02-26T14:26:31;4.80;;;3.03;;
21806;SDS011;11065;50.786;7.840;2024-02-26T14:28:59;4.77;;;3.17;;
21806;SDS011;11065;50.786;7.840;2024-02-26T14:31:27;5.23;;;2.73;;
21806;SDS011;11065;50.786;7.840;2024-02-26T14:33:55;5.37;;;2.97;;
21806;SDS011;11065;50.786;7.840;2024-02-26T14:36:23;3.50;;;2.30;;
21806;SDS011;11065;50.786;7.840;2024-02-26T14:38:51;4.00;;;2.50;;
21806;SDS011;11065;50.786;7.840;2024-02-26T14:41:21;3.80;;;2.47;;
21806;SDS011;11065;50.786;7.840;2024-02-26T14:43:49;5.40;;;2.60;;
21806;SDS011;11065;50.786;7.840;2024-02-26T14:46:17;3.80;;;2.50;;
21806;SDS011;11065;50.786;7.840;2024-02-26T14:48:44;4.37;;;2.67;;
21806;SDS011;11065;50.786;7.840;2024-02-26T14:51:13;4.07;;;2.33;;
21806;SDS011;11065;50.786;7.840;2024-02-26T14:53:41;3.57;;;2.33;;
21806;SDS011;11065;50.786;7.840;2024-02-26T14:56:08;3.00;;;2.07;;
21806;SDS011;11065;50.786;7.840;2024-02-26T14:58:38;3.63;;;2.03;;